CSCL Autumn — VRNA7 — position and weather

sailwx.info

Track history (hours):
 
Tides and Currents Weather Stations Pressure Air Temp Water Temp Dewpoint Dewpoint Depression Visibility Wind Speed Wind Dir Waves Ship Positions

CSCL Autumn

Last reported at 2017-Nov-04 20:42 UTC. Time now 2017-Nov-18 10:07 UTC.
Position N 37°40' W 124°10'.
Warning: this ship's position is 13 days out of date.

Length 335 m; draft 11.3 m.

Type: Ship (hazmat cat A). MMSI: 477117900.

Date/timePositionNaut miles runAvg speedWind from/ knotsBaromVisibWave heightAir tempDewpointWater temp
2017-Nov-04 20:42N 37°40' W 124°10'1513.5
2017-Nov-04 19:35N 37°38' W 123°52'114.3
2017-Nov-04 19:30N 37°38' W 123°50'713.9
2017-Nov-04 19:00N 37°37' W 123°41'713.7
2017-Nov-04 18:31N 37°36' W 123°33'713.5
2017-Nov-04 18:00N 37°36' W 123°24'713.3
2017-Nov-04 17:30N 37°35' W 123°16'713.1
2017-Nov-04 17:00N 37°34' W 123°08'612.6
2017-Nov-04 16:30N 37°36' W 123°00'714.0
2017-Nov-04 16:00N 37°40' W 122°53'713.9
2017-Nov-04 15:30N 37°43' W 122°45'510.0
2017-Nov-04 15:01N 37°46' W 122°40'816.1
2017-Nov-04 14:30N 37°49' W 122°30'611.5
2017-Nov-04 14:00N 37°49' W 122°23'4 7.2
2017-Nov-04 13:31N 37°48' W 122°19'1 2.1
2017-Nov-04 13:00N 37°48' W 122°17'1 2.9
2017-Nov-04 12:30N 37°48' W 122°19'0 0.0
2017-Nov-04 12:00N 37°48' W 122°19'0 0.0
2017-Nov-04 11:30N 37°48' W 122°19'0 0.0
2017-Nov-04 11:00N 37°48' W 122°19'0 0.0
2017-Nov-04 10:30N 37°48' W 122°19'0 0.0
2017-Nov-04 10:00N 37°48' W 122°19'0 0.0
2017-Nov-04 09:30N 37°48' W 122°19'0 0.0
2017-Nov-04 09:00N 37°48' W 122°19'0 0.0
2017-Nov-04 08:30N 37°48' W 122°19'0 0.0
2017-Nov-04 08:00N 37°48' W 122°19'0 0.0
2017-Nov-04 07:30N 37°48' W 122°19'0 0.0
2017-Nov-04 07:00N 37°48' W 122°19'0 0.0
2017-Nov-04 06:30N 37°48' W 122°19'0 0.0
2017-Nov-04 06:00N 37°48' W 122°19'0 0.0
2017-Nov-04 05:30N 37°48' W 122°19'0 0.0
2017-Nov-04 05:00N 37°48' W 122°19'0 0.0
2017-Nov-04 04:30N 37°48' W 122°19'0 0.0
2017-Nov-04 04:00N 37°48' W 122°19'0 0.0
2017-Nov-04 03:30N 37°48' W 122°19'0 0.0
2017-Nov-04 03:00N 37°48' W 122°19'0 0.0
2017-Nov-04 02:30N 37°48' W 122°19'0 0.0
2017-Nov-04 02:00N 37°48' W 122°19'0 0.0
2017-Nov-04 01:30N 37°48' W 122°19'0 0.0
2017-Nov-04 01:00N 37°48' W 122°19'0 0.0
2017-Nov-04 00:30N 37°48' W 122°19'0 0.0
2017-Nov-04 00:00N 37°48' W 122°19'0 0.0
2017-Nov-03 23:30N 37°48' W 122°19'0 0.0
2017-Nov-03 23:00N 37°48' W 122°19'0 0.0
2017-Nov-03 22:30N 37°48' W 122°19'0 0.0
2017-Nov-03 22:00N 37°48' W 122°19'0 0.0
2017-Nov-03 21:30N 37°48' W 122°19'0 0.0
2017-Nov-03 21:00N 37°48' W 122°19'0 0.0
2017-Nov-03 20:30N 37°48' W 122°19'0 0.0
2017-Nov-03 20:00N 37°48' W 122°19'0 0.0
2017-Nov-03 19:30N 37°48' W 122°19'0 0.0
2017-Nov-03 19:00N 37°48' W 122°19'0 0.0
2017-Nov-03 18:30N 37°48' W 122°19'0 0.0
2017-Nov-03 18:00N 37°48' W 122°19'0 0.0
2017-Nov-03 17:30N 37°48' W 122°19'0 0.0
2017-Nov-03 17:00N 37°48' W 122°19'0 0.0
2017-Nov-03 16:30N 37°48' W 122°19'0 0.0
2017-Nov-03 16:00N 37°48' W 122°19'0 0.0
2017-Nov-03 15:30N 37°48' W 122°19'0 0.0
2017-Nov-03 15:00N 37°48' W 122°19'0 0.0
2017-Nov-03 14:30N 37°48' W 122°19'0 0.0
2017-Nov-03 14:00N 37°48' W 122°19'0 0.0
2017-Nov-03 13:30N 37°48' W 122°19'0 0.0
2017-Nov-03 13:00N 37°48' W 122°19'0 0.0
2017-Nov-03 12:30N 37°48' W 122°19'0 0.0
2017-Nov-03 12:00N 37°48' W 122°19'0 0.2
2017-Nov-03 11:31N 37°48' W 122°19'4 8.8
2017-Nov-03 11:01N 37°49' W 122°25'612.3
2017-Nov-03 10:30N 37°48' W 122°32'714.1
2017-Nov-03 10:00N 37°45' W 122°40'5 9.9
2017-Nov-03 09:30N 37°40' W 122°40'611.8
2017-Nov-03 09:00N 37°34' W 122°40'612.7
2017-Nov-03 08:30N 37°28' W 122°40'612.6
2017-Nov-03 08:00N 37°21' W 122°40'611.5
2017-Nov-03 07:30N 37°16' W 122°38'612.0
2017-Nov-03 07:00N 37°13' W 122°31'1 1.7
2017-Nov-03 06:30N 37°12' W 122°31'1 1.2
2017-Nov-03 06:00N 37°12' W 122°32'1 1.2
2017-Nov-03 05:30N 37°11' W 122°32'1 1.2
2017-Nov-03 05:00N 37°11' W 122°32'1 1.3
2017-Nov-03 04:30N 37°10' W 122°32'1 1.4
2017-Nov-03 04:00N 37°09' W 122°32'1 1.3
2017-Nov-03 03:30N 37°09' W 122°32'1 1.6
2017-Nov-03 03:00N 37°08' W 122°33'1 2.5
2017-Nov-03 02:30N 37°07' W 122°33'5 9.0
2017-Nov-03 02:00N 37°03' W 122°30'511.0
2017-Nov-03 01:31N 36°58' W 122°29'713.9
2017-Nov-03 01:00N 36°50' W 122°30'713.9
2017-Nov-03 00:30N 36°44' W 122°30'713.5
2017-Nov-03 00:00N 36°37' W 122°31'713.3
2017-Nov-02 23:30N 36°30' W 122°30'713.7
2017-Nov-02 23:00N 36°23' W 122°29'713.8
2017-Nov-02 22:30N 36°17' W 122°27'713.8
2017-Nov-02 22:00N 36°10' W 122°25'713.5
2017-Nov-02 21:30N 36°04' W 122°21'713.7
2017-Nov-02 21:00N 35°58' W 122°16'713.5
2017-Nov-02 20:30N 35°53' W 122°12'713.8
2017-Nov-02 20:01N 35°47' W 122°08'713.8
2017-Nov-02 19:30N 35°41' W 122°03'713.8
2017-Nov-02 19:01N 35°35' W 121°58'713.7
2017-Nov-02 18:30N 35°29' W 121°54'713.8
2017-Nov-02 18:00N 35°23' W 121°49'714.0
2017-Nov-02 17:30N 35°18' W 121°45'714.0
2017-Nov-02 17:01N 35°12' W 121°40'714.0
2017-Nov-02 16:30N 35°06' W 121°36'713.9
2017-Nov-02 16:00N 34°60' W 121°31'714.0
2017-Nov-02 15:30N 34°54' W 121°27'714.0
2017-Nov-02 15:00N 34°48' W 121°22'713.9
2017-Nov-02 14:30N 34°42' W 121°17'713.6
2017-Nov-02 14:00N 34°36' W 121°13'713.5
2017-Nov-02 13:30N 34°31' W 121°08'713.2
2017-Nov-02 13:00N 34°28' W 121°01'713.6
2017-Nov-02 12:30N 34°26' W 120°53'714.0
2017-Nov-02 11:59N 34°25' W 120°44'714.7
2017-Nov-02 11:28N 34°23' W 120°36'714.2
2017-Nov-02 11:00N 34°21' W 120°28'713.4
2017-Nov-02 10:30N 34°19' W 120°20'713.4
2017-Nov-02 09:58N 34°17' W 120°12'613.5
2017-Nov-02 09:30N 34°15' W 120°04'713.3
2017-Nov-02 09:00N 34°14' W 119°56'813.4
2017-Nov-02 08:23N 34°11' W 119°47'513.3
2017-Nov-02 07:59N 34°10' W 119°41'713.5
2017-Nov-02 07:30N 34°08' W 119°33'813.5
2017-Nov-02 06:52N 34°06' W 119°23'513.8
2017-Nov-02 06:30N 34°05' W 119°17'713.6
2017-Nov-02 06:00N 34°02' W 119°10'713.9
2017-Nov-02 05:30N 33°58' W 119°03'510.6
2017-Nov-02 05:00N 33°56' W 118°57'610.2
2017-Nov-02 04:27N 33°53' W 118°51'4 9.9
2017-Nov-02 04:01N 33°51' W 118°47'5 9.7
2017-Nov-02 03:30N 33°48' W 118°42'5 9.6
2017-Nov-02 03:00N 33°46' W 118°37'5 9.7
2017-Nov-02 02:30N 33°43' W 118°32'510.1
2017-Nov-02 02:01N 33°41' W 118°26'5 9.8
2017-Nov-02 01:30N 33°39' W 118°21'6 9.4
2017-Nov-02 00:54N 33°39' W 118°14'  
2017-Oct-30 12:10N 33°44' W 118°12'10 5.4
2017-Oct-30 10:23N 33°36' W 118°17'4 9.2
2017-Oct-30 10:00N 33°37' W 118°22'510.2
2017-Oct-30 09:30N 33°39' W 118°27'611.3
2017-Oct-30 09:01N 33°42' W 118°33'611.2
2017-Oct-30 08:30N 33°45' W 118°39'611.3
2017-Oct-30 08:00N 33°48' W 118°44'611.3
2017-Oct-30 07:30N 33°50' W 118°50'611.4
2017-Oct-30 07:00N 33°53' W 118°56'611.4
2017-Oct-30 06:30N 33°56' W 119°03'612.5
2017-Oct-30 06:00N 33°58' W 119°10'713.2
2017-Oct-30 05:30N 34°02' W 119°16'713.7
2017-Oct-30 05:00N 34°04' W 119°24'713.5
2017-Oct-30 04:30N 34°06' W 119°32'815.3
2017-Oct-30 04:00N 34°08' W 119°41'815.5
2017-Oct-30 03:29N 34°10' W 119°50'815.5
2017-Oct-30 03:00N 34°12' W 119°59'1017.6
2017-Oct-30 02:26N 34°15' W 120°10'817.5
2017-Oct-30 01:59N 34°17' W 120°19'916.9
2017-Oct-30 01:28N 34°20' W 120°30'816.7
2017-Oct-30 01:00N 34°21' W 120°39'815.3
2017-Oct-30 00:29N 34°23' W 120°48'815.0
2017-Oct-29 23:59N 34°25' W 120°57'714.6
2017-Oct-29 23:30N 34°27' W 121°05'612.0
2017-Oct-29 23:00N 34°31' W 121°11'815.3
2017-Oct-29 22:31N 34°38' W 121°15'714.9
2017-Oct-29 22:00N 34°44' W 121°20'714.5
2017-Oct-29 21:31N 34°50' W 121°25'815.0
2017-Oct-29 21:00N 34°57' W 121°29'815.2
2017-Oct-29 20:30N 35°03' W 121°34'815.2
2017-Oct-29 20:01N 35°09' W 121°39'815.3
2017-Oct-29 19:31N 35°15' W 121°45'815.3
2017-Oct-29 19:01N 35°22' W 121°50'815.2
2017-Oct-29 18:30N 35°28' W 121°55'815.3
2017-Oct-29 18:01N 35°35' W 122°00'1815.1
2017-Oct-29 16:48N 35°50' W 122°13'414.8
2017-Oct-29 16:30N 35°54' W 122°16'2415.0
2017-Oct-29 14:53N 36°14' W 122°32'715.3
2017-Oct-29 14:26N 36°20' W 122°36'715.6
2017-Oct-29 14:01N 36°26' W 122°40'917.7
2017-Oct-29 13:31N 36°33' W 122°46'917.6
2017-Oct-29 13:01N 36°41' W 122°52'917.3
2017-Oct-29 12:31N 36°48' W 122°58'917.3
2017-Oct-29 12:01N 36°55' W 123°04'1017.3
2017-Oct-29 11:27N 37°03' W 123°10'2017.2
2017-Oct-29 10:17N 37°20' W 123°24'2817.3
2017-Oct-29 08:40N 37°44' W 123°43'317.5
2017-Oct-29 08:31N 37°46' W 123°45'917.5
2017-Oct-29 08:01N 37°53' W 123°51'917.9
2017-Oct-29 07:31N 38°01' W 123°57'917.9
2017-Oct-29 07:01N 38°09' W 124°03'917.6
2017-Oct-29 06:31N 38°16' W 124°09'917.6
2017-Oct-29 06:01N 38°23' W 124°15'917.6
2017-Oct-29 05:30N 38°31' W 124°21'1618.0
2017-Oct-29 04:38N 38°45' W 124°30'58118.3
2017-Oct-27 20:47N 48°01' W 128°24'518.7
2017-Oct-27 20:30N 48°06' W 128°27'918.7
2017-Oct-27 20:00N 48°15' W 128°31'5719.0
2017-Oct-27 17:01N 49°09' W 128°56'118.6
2017-Oct-27 16:59N 49°10' W 128°56'918.5
2017-Oct-27 16:30N 49°18' W 129°00'918.4
2017-Oct-27 16:00N 49°27' W 129°04'1018.9
2017-Oct-27 15:29N 49°36' W 129°09'918.8
2017-Oct-27 15:00N 49°45' W 129°13'919.0
2017-Oct-27 14:31N 49°54' W 129°17'1019.1
2017-Oct-27 14:00N 50°03' W 129°22'918.8
2017-Oct-27 13:31N 50°12' W 129°26'918.8
2017-Oct-27 13:00N 50°21' W 129°30'1019.1
2017-Oct-27 12:30N 50°30' W 129°34'1019.1
2017-Oct-27 12:01N 50°39' W 129°39'918.7
2017-Oct-27 11:31N 50°48' W 129°43'1019.0
2017-Oct-27 11:00N 50°58' W 129°48'919.0
2017-Oct-27 10:31N 51°07' W 129°51'1019.2
2017-Oct-27 10:01N 51°16' W 129°55'918.9
2017-Oct-27 09:30N 51°25' W 129°60'919.0
2017-Oct-27 09:00N 51°34' W 130°05'918.9
2017-Oct-27 08:31N 51°43' W 130°09'1019.0
2017-Oct-27 08:00N 51°52' W 130°14'918.8
2017-Oct-27 07:30N 52°01' W 130°19'1019.3
2017-Oct-27 07:01N 52°10' W 130°23'1019.2
2017-Oct-27 06:30N 52°19' W 130°28'1019.2
2017-Oct-27 06:00N 52°29' W 130°33'1019.4
2017-Oct-27 05:30N 52°38' W 130°37'1019.5
2017-Oct-27 05:00N 52°47' W 130°42'1019.8
2017-Oct-27 04:30N 52°57' W 130°47'1019.5
2017-Oct-27 04:00N 53°06' W 130°51'1019.4
2017-Oct-27 03:28N 53°16' W 130°56'919.0
2017-Oct-27 03:00N 53°25' W 130°57'918.8
2017-Oct-27 02:31N 53°34' W 130°58'918.6
2017-Oct-27 02:00N 53°43' W 130°59'918.4
2017-Oct-27 01:30N 53°53' W 130°60'917.9
2017-Oct-27 01:00N 54°02' W 131°00'918.1
2017-Oct-27 00:30N 54°11' W 131°02'817.0
2017-Oct-27 00:01N 54°19' W 130°58'713.8
2017-Oct-26 23:30N 54°17' W 130°47'816.7
2017-Oct-26 23:01N 54°13' W 130°34'815.4
2017-Oct-26 22:30N 54°12' W 130°21'4 8.6
2017-Oct-26 22:00N 54°17' W 130°22'1 1.1
2017-Oct-26 21:25N 54°17' W 130°22'0 0.0
2017-Oct-26 19:43N 54°17' W 130°22'0 0.1
2017-Oct-26 19:25N 54°17' W 130°22'0 0.0
2017-Oct-26 18:55N 54°17' W 130°22'0 0.0
2017-Oct-26 18:25N 54°17' W 130°22'0 0.0
2017-Oct-26 17:55N 54°17' W 130°22'0 0.0
2017-Oct-26 17:28N 54°17' W 130°22'0 0.0
2017-Oct-26 16:58N 54°17' W 130°22'0 0.0
2017-Oct-26 16:28N 54°17' W 130°22'0 0.0
2017-Oct-26 15:58N 54°17' W 130°22'0 0.0
2017-Oct-26 15:28N 54°17' W 130°22'0 0.0
2017-Oct-26 14:58N 54°17' W 130°22'0 0.0
2017-Oct-26 14:22N 54°17' W 130°22'0 0.0
2017-Oct-26 13:46N 54°17' W 130°22'0 0.0
2017-Oct-26 13:22N 54°17' W 130°22'0 0.0
2017-Oct-26 12:46N 54°17' W 130°22'0 0.0
2017-Oct-26 12:25N 54°17' W 130°22'0 0.0
2017-Oct-26 11:46N 54°17' W 130°22'0 0.0
2017-Oct-26 11:30N 54°17' W 130°22'0 0.0
2017-Oct-26 11:00N 54°17' W 130°22'0 0.0
2017-Oct-26 10:30N 54°17' W 130°22'0 0.0
2017-Oct-26 10:00N 54°17' W 130°22'0 0.0
2017-Oct-26 09:30N 54°17' W 130°22'0 0.0
2017-Oct-26 08:57N 54°17' W 130°22'0 0.0
2017-Oct-26 08:30N 54°17' W 130°22'0 0.0
2017-Oct-26 08:00N 54°17' W 130°22'0 0.0
2017-Oct-26 07:30N 54°17' W 130°22'0 0.0
2017-Oct-26 06:54N 54°17' W 130°22'0 0.0
2017-Oct-26 06:27N 54°17' W 130°22'0 0.0
2017-Oct-26 06:00N 54°17' W 130°22'0 0.0
2017-Oct-26 05:30N 54°17' W 130°22'0 0.0
2017-Oct-26 05:00N 54°17' W 130°22'0 0.0
2017-Oct-26 04:30N 54°17' W 130°22'0 0.0
2017-Oct-26 04:00N 54°17' W 130°22'0 0.0
2017-Oct-26 03:24N 54°17' W 130°22'0 0.0
2017-Oct-26 02:58N 54°17' W 130°22'0 0.0
2017-Oct-26 02:28N 54°17' W 130°22'0 0.0
2017-Oct-26 01:58N 54°17' W 130°22'0 0.0
2017-Oct-26 01:28N 54°17' W 130°22'0 0.0
2017-Oct-26 00:58N 54°17' W 130°22'0 0.0
2017-Oct-26 00:28N 54°17' W 130°22'0 0.0
2017-Oct-25 23:58N 54°17' W 130°22'0 0.0
2017-Oct-25 23:25N 54°17' W 130°22'0 0.0
2017-Oct-25 22:58N 54°17' W 130°22'0 0.0
2017-Oct-25 22:28N 54°17' W 130°22'0 0.0
2017-Oct-25 21:58N 54°17' W 130°22'0 0.0
2017-Oct-25 21:13N 54°17' W 130°22'0 0.0
2017-Oct-25 20:55N 54°17' W 130°22'  
Track history (hours):
 
Tides and Currents Weather Stations Pressure Air Temp Water Temp Dewpoint Dewpoint Depression Visibility Wind Speed Wind Dir Waves Ship Positions

CSCL Autumn

Last reported at 2017-Nov-04 20:42 UTC. Time now 2017-Nov-18 10:07 UTC.
Position N 37°40' W 124°10'.
Warning: this ship's position is 13 days out of date.

Length 335 m; draft 11.3 m.

Type: Ship (hazmat cat A). MMSI: 477117900.

Date/timePositionNaut miles runAvg speedWind from/ knotsBaromVisibWave heightAir tempDewpointWater temp
2017-Nov-04 20:42N 37°40' W 124°10'1513.5
2017-Nov-04 19:35N 37°38' W 123°52'114.3
2017-Nov-04 19:30N 37°38' W 123°50'713.9
2017-Nov-04 19:00N 37°37' W 123°41'713.7
2017-Nov-04 18:31N 37°36' W 123°33'713.5
2017-Nov-04 18:00N 37°36' W 123°24'713.3
2017-Nov-04 17:30N 37°35' W 123°16'713.1
2017-Nov-04 17:00N 37°34' W 123°08'612.6
2017-Nov-04 16:30N 37°36' W 123°00'714.0
2017-Nov-04 16:00N 37°40' W 122°53'713.9
2017-Nov-04 15:30N 37°43' W 122°45'510.0
2017-Nov-04 15:01N 37°46' W 122°40'816.1
2017-Nov-04 14:30N 37°49' W 122°30'611.5
2017-Nov-04 14:00N 37°49' W 122°23'4 7.2
2017-Nov-04 13:31N 37°48' W 122°19'1 2.1
2017-Nov-04 13:00N 37°48' W 122°17'1 2.9
2017-Nov-04 12:30N 37°48' W 122°19'0 0.0
2017-Nov-04 12:00N 37°48' W 122°19'0 0.0
2017-Nov-04 11:30N 37°48' W 122°19'0 0.0
2017-Nov-04 11:00N 37°48' W 122°19'0 0.0
2017-Nov-04 10:30N 37°48' W 122°19'0 0.0
2017-Nov-04 10:00N 37°48' W 122°19'0 0.0
2017-Nov-04 09:30N 37°48' W 122°19'0 0.0
2017-Nov-04 09:00N 37°48' W 122°19'0 0.0
2017-Nov-04 08:30N 37°48' W 122°19'0 0.0
2017-Nov-04 08:00N 37°48' W 122°19'0 0.0
2017-Nov-04 07:30N 37°48' W 122°19'0 0.0
2017-Nov-04 07:00N 37°48' W 122°19'0 0.0
2017-Nov-04 06:30N 37°48' W 122°19'0 0.0
2017-Nov-04 06:00N 37°48' W 122°19'0 0.0
2017-Nov-04 05:30N 37°48' W 122°19'0 0.0
2017-Nov-04 05:00N 37°48' W 122°19'0 0.0
2017-Nov-04 04:30N 37°48' W 122°19'0 0.0
2017-Nov-04 04:00N 37°48' W 122°19'0 0.0
2017-Nov-04 03:30N 37°48' W 122°19'0 0.0
2017-Nov-04 03:00N 37°48' W 122°19'0 0.0
2017-Nov-04 02:30N 37°48' W 122°19'0 0.0
2017-Nov-04 02:00N 37°48' W 122°19'0 0.0
2017-Nov-04 01:30N 37°48' W 122°19'0 0.0
2017-Nov-04 01:00N 37°48' W 122°19'0 0.0
2017-Nov-04 00:30N 37°48' W 122°19'0 0.0
2017-Nov-04 00:00N 37°48' W 122°19'0 0.0
2017-Nov-03 23:30N 37°48' W 122°19'0 0.0
2017-Nov-03 23:00N 37°48' W 122°19'0 0.0
2017-Nov-03 22:30N 37°48' W 122°19'0 0.0
2017-Nov-03 22:00N 37°48' W 122°19'0 0.0
2017-Nov-03 21:30N 37°48' W 122°19'0 0.0
2017-Nov-03 21:00N 37°48' W 122°19'0 0.0
2017-Nov-03 20:30N 37°48' W 122°19'0 0.0
2017-Nov-03 20:00N 37°48' W 122°19'0 0.0
2017-Nov-03 19:30N 37°48' W 122°19'0 0.0
2017-Nov-03 19:00N 37°48' W 122°19'0 0.0
2017-Nov-03 18:30N 37°48' W 122°19'0 0.0
2017-Nov-03 18:00N 37°48' W 122°19'0 0.0
2017-Nov-03 17:30N 37°48' W 122°19'0 0.0
2017-Nov-03 17:00N 37°48' W 122°19'0 0.0
2017-Nov-03 16:30N 37°48' W 122°19'0 0.0
2017-Nov-03 16:00N 37°48' W 122°19'0 0.0
2017-Nov-03 15:30N 37°48' W 122°19'0 0.0
2017-Nov-03 15:00N 37°48' W 122°19'0 0.0
2017-Nov-03 14:30N 37°48' W 122°19'0 0.0
2017-Nov-03 14:00N 37°48' W 122°19'0 0.0
2017-Nov-03 13:30N 37°48' W 122°19'0 0.0
2017-Nov-03 13:00N 37°48' W 122°19'0 0.0
2017-Nov-03 12:30N 37°48' W 122°19'0 0.0
2017-Nov-03 12:00N 37°48' W 122°19'0 0.2
2017-Nov-03 11:31N 37°48' W 122°19'4 8.8
2017-Nov-03 11:01N 37°49' W 122°25'612.3
2017-Nov-03 10:30N 37°48' W 122°32'714.1
2017-Nov-03 10:00N 37°45' W 122°40'5 9.9
2017-Nov-03 09:30N 37°40' W 122°40'611.8
2017-Nov-03 09:00N 37°34' W 122°40'612.7
2017-Nov-03 08:30N 37°28' W 122°40'612.6
2017-Nov-03 08:00N 37°21' W 122°40'611.5
2017-Nov-03 07:30N 37°16' W 122°38'612.0
2017-Nov-03 07:00N 37°13' W 122°31'1 1.7
2017-Nov-03 06:30N 37°12' W 122°31'1 1.2
2017-Nov-03 06:00N 37°12' W 122°32'1 1.2
2017-Nov-03 05:30N 37°11' W 122°32'1 1.2
2017-Nov-03 05:00N 37°11' W 122°32'1 1.3
2017-Nov-03 04:30N 37°10' W 122°32'1 1.4
2017-Nov-03 04:00N 37°09' W 122°32'1 1.3
2017-Nov-03 03:30N 37°09' W 122°32'1 1.6
2017-Nov-03 03:00N 37°08' W 122°33'1 2.5
2017-Nov-03 02:30N 37°07' W 122°33'5 9.0
2017-Nov-03 02:00N 37°03' W 122°30'511.0
2017-Nov-03 01:31N 36°58' W 122°29'713.9
2017-Nov-03 01:00N 36°50' W 122°30'713.9
2017-Nov-03 00:30N 36°44' W 122°30'713.5
2017-Nov-03 00:00N 36°37' W 122°31'713.3
2017-Nov-02 23:30N 36°30' W 122°30'713.7
2017-Nov-02 23:00N 36°23' W 122°29'713.8
2017-Nov-02 22:30N 36°17' W 122°27'713.8
2017-Nov-02 22:00N 36°10' W 122°25'713.5
2017-Nov-02 21:30N 36°04' W 122°21'713.7
2017-Nov-02 21:00N 35°58' W 122°16'713.5
2017-Nov-02 20:30N 35°53' W 122°12'713.8
2017-Nov-02 20:01N 35°47' W 122°08'713.8
2017-Nov-02 19:30N 35°41' W 122°03'713.8
2017-Nov-02 19:01N 35°35' W 121°58'713.7
2017-Nov-02 18:30N 35°29' W 121°54'713.8
2017-Nov-02 18:00N 35°23' W 121°49'714.0
2017-Nov-02 17:30N 35°18' W 121°45'714.0
2017-Nov-02 17:01N 35°12' W 121°40'714.0
2017-Nov-02 16:30N 35°06' W 121°36'713.9
2017-Nov-02 16:00N 34°60' W 121°31'714.0
2017-Nov-02 15:30N 34°54' W 121°27'714.0
2017-Nov-02 15:00N 34°48' W 121°22'713.9
2017-Nov-02 14:30N 34°42' W 121°17'713.6
2017-Nov-02 14:00N 34°36' W 121°13'713.5
2017-Nov-02 13:30N 34°31' W 121°08'713.2
2017-Nov-02 13:00N 34°28' W 121°01'713.6
2017-Nov-02 12:30N 34°26' W 120°53'714.0
2017-Nov-02 11:59N 34°25' W 120°44'714.7
2017-Nov-02 11:28N 34°23' W 120°36'714.2
2017-Nov-02 11:00N 34°21' W 120°28'713.4
2017-Nov-02 10:30N 34°19' W 120°20'713.4
2017-Nov-02 09:58N 34°17' W 120°12'613.5
2017-Nov-02 09:30N 34°15' W 120°04'713.3
2017-Nov-02 09:00N 34°14' W 119°56'813.4
2017-Nov-02 08:23N 34°11' W 119°47'513.3
2017-Nov-02 07:59N 34°10' W 119°41'713.5
2017-Nov-02 07:30N 34°08' W 119°33'813.5
2017-Nov-02 06:52N 34°06' W 119°23'513.8
2017-Nov-02 06:30N 34°05' W 119°17'713.6
2017-Nov-02 06:00N 34°02' W 119°10'713.9
2017-Nov-02 05:30N 33°58' W 119°03'510.6
2017-Nov-02 05:00N 33°56' W 118°57'610.2
2017-Nov-02 04:27N 33°53' W 118°51'4 9.9
2017-Nov-02 04:01N 33°51' W 118°47'5 9.7
2017-Nov-02 03:30N 33°48' W 118°42'5 9.6
2017-Nov-02 03:00N 33°46' W 118°37'5 9.7
2017-Nov-02 02:30N 33°43' W 118°32'510.1
2017-Nov-02 02:01N 33°41' W 118°26'5 9.8
2017-Nov-02 01:30N 33°39' W 118°21'6 9.4
2017-Nov-02 00:54N 33°39' W 118°14'  
2017-Oct-30 12:10N 33°44' W 118°12'10 5.4
2017-Oct-30 10:23N 33°36' W 118°17'4 9.2
2017-Oct-30 10:00N 33°37' W 118°22'510.2
2017-Oct-30 09:30N 33°39' W 118°27'611.3
2017-Oct-30 09:01N 33°42' W 118°33'611.2
2017-Oct-30 08:30N 33°45' W 118°39'611.3
2017-Oct-30 08:00N 33°48' W 118°44'611.3
2017-Oct-30 07:30N 33°50' W 118°50'611.4
2017-Oct-30 07:00N 33°53' W 118°56'611.4
2017-Oct-30 06:30N 33°56' W 119°03'612.5
2017-Oct-30 06:00N 33°58' W 119°10'713.2
2017-Oct-30 05:30N 34°02' W 119°16'713.7
2017-Oct-30 05:00N 34°04' W 119°24'713.5
2017-Oct-30 04:30N 34°06' W 119°32'815.3
2017-Oct-30 04:00N 34°08' W 119°41'815.5
2017-Oct-30 03:29N 34°10' W 119°50'815.5
2017-Oct-30 03:00N 34°12' W 119°59'1017.6
2017-Oct-30 02:26N 34°15' W 120°10'817.5
2017-Oct-30 01:59N 34°17' W 120°19'916.9
2017-Oct-30 01:28N 34°20' W 120°30'816.7
2017-Oct-30 01:00N 34°21' W 120°39'815.3
2017-Oct-30 00:29N 34°23' W 120°48'815.0
2017-Oct-29 23:59N 34°25' W 120°57'714.6
2017-Oct-29 23:30N 34°27' W 121°05'612.0
2017-Oct-29 23:00N 34°31' W 121°11'815.3
2017-Oct-29 22:31N 34°38' W 121°15'714.9
2017-Oct-29 22:00N 34°44' W 121°20'714.5
2017-Oct-29 21:31N 34°50' W 121°25'815.0
2017-Oct-29 21:00N 34°57' W 121°29'815.2
2017-Oct-29 20:30N 35°03' W 121°34'815.2
2017-Oct-29 20:01N 35°09' W 121°39'815.3
2017-Oct-29 19:31N 35°15' W 121°45'815.3
2017-Oct-29 19:01N 35°22' W 121°50'815.2
2017-Oct-29 18:30N 35°28' W 121°55'815.3
2017-Oct-29 18:01N 35°35' W 122°00'1815.1
2017-Oct-29 16:48N 35°50' W 122°13'414.8
2017-Oct-29 16:30N 35°54' W 122°16'2415.0
2017-Oct-29 14:53N 36°14' W 122°32'715.3
2017-Oct-29 14:26N 36°20' W 122°36'715.6
2017-Oct-29 14:01N 36°26' W 122°40'917.7
2017-Oct-29 13:31N 36°33' W 122°46'917.6
2017-Oct-29 13:01N 36°41' W 122°52'917.3
2017-Oct-29 12:31N 36°48' W 122°58'917.3
2017-Oct-29 12:01N 36°55' W 123°04'1017.3
2017-Oct-29 11:27N 37°03' W 123°10'2017.2
2017-Oct-29 10:17N 37°20' W 123°24'2817.3
2017-Oct-29 08:40N 37°44' W 123°43'317.5
2017-Oct-29 08:31N 37°46' W 123°45'917.5
2017-Oct-29 08:01N 37°53' W 123°51'917.9
2017-Oct-29 07:31N 38°01' W 123°57'917.9
2017-Oct-29 07:01N 38°09' W 124°03'917.6
2017-Oct-29 06:31N 38°16' W 124°09'917.6
2017-Oct-29 06:01N 38°23' W 124°15'917.6
2017-Oct-29 05:30N 38°31' W 124°21'1618.0
2017-Oct-29 04:38N 38°45' W 124°30'58118.3
2017-Oct-27 20:47N 48°01' W 128°24'518.7
2017-Oct-27 20:30N 48°06' W 128°27'918.7
2017-Oct-27 20:00N 48°15' W 128°31'5719.0
2017-Oct-27 17:01N 49°09' W 128°56'118.6
2017-Oct-27 16:59N 49°10' W 128°56'918.5
2017-Oct-27 16:30N 49°18' W 129°00'918.4
2017-Oct-27 16:00N 49°27' W 129°04'1018.9
2017-Oct-27 15:29N 49°36' W 129°09'918.8
2017-Oct-27 15:00N 49°45' W 129°13'919.0
2017-Oct-27 14:31N 49°54' W 129°17'1019.1
2017-Oct-27 14:00N 50°03' W 129°22'918.8
2017-Oct-27 13:31N 50°12' W 129°26'918.8
2017-Oct-27 13:00N 50°21' W 129°30'1019.1
2017-Oct-27 12:30N 50°30' W 129°34'1019.1
2017-Oct-27 12:01N 50°39' W 129°39'918.7
2017-Oct-27 11:31N 50°48' W 129°43'1019.0
2017-Oct-27 11:00N 50°58' W 129°48'919.0
2017-Oct-27 10:31N 51°07' W 129°51'1019.2
2017-Oct-27 10:01N 51°16' W 129°55'918.9
2017-Oct-27 09:30N 51°25' W 129°60'919.0
2017-Oct-27 09:00N 51°34' W 130°05'918.9
2017-Oct-27 08:31N 51°43' W 130°09'1019.0
2017-Oct-27 08:00N 51°52' W 130°14'918.8
2017-Oct-27 07:30N 52°01' W 130°19'1019.3
2017-Oct-27 07:01N 52°10' W 130°23'1019.2
2017-Oct-27 06:30N 52°19' W 130°28'1019.2
2017-Oct-27 06:00N 52°29' W 130°33'1019.4
2017-Oct-27 05:30N 52°38' W 130°37'1019.5
2017-Oct-27 05:00N 52°47' W 130°42'1019.8
2017-Oct-27 04:30N 52°57' W 130°47'1019.5
2017-Oct-27 04:00N 53°06' W 130°51'1019.4
2017-Oct-27 03:28N 53°16' W 130°56'919.0
2017-Oct-27 03:00N 53°25' W 130°57'918.8
2017-Oct-27 02:31N 53°34' W 130°58'918.6
2017-Oct-27 02:00N 53°43' W 130°59'918.4
2017-Oct-27 01:30N 53°53' W 130°60'917.9
2017-Oct-27 01:00N 54°02' W 131°00'918.1
2017-Oct-27 00:30N 54°11' W 131°02'817.0
2017-Oct-27 00:01N 54°19' W 130°58'713.8
2017-Oct-26 23:30N 54°17' W 130°47'816.7
2017-Oct-26 23:01N 54°13' W 130°34'815.4
2017-Oct-26 22:30N 54°12' W 130°21'4 8.6
2017-Oct-26 22:00N 54°17' W 130°22'1 1.1
2017-Oct-26 21:25N 54°17' W 130°22'0 0.0
2017-Oct-26 19:43N 54°17' W 130°22'0 0.1
2017-Oct-26 19:25N 54°17' W 130°22'0 0.0
2017-Oct-26 18:55N 54°17' W 130°22'0 0.0
2017-Oct-26 18:25N 54°17' W 130°22'0 0.0
2017-Oct-26 17:55N 54°17' W 130°22'0 0.0
2017-Oct-26 17:28N 54°17' W 130°22'0 0.0
2017-Oct-26 16:58N 54°17' W 130°22'0 0.0
2017-Oct-26 16:28N 54°17' W 130°22'0 0.0
2017-Oct-26 15:58N 54°17' W 130°22'0 0.0
2017-Oct-26 15:28N 54°17' W 130°22'0 0.0
2017-Oct-26 14:58N 54°17' W 130°22'0 0.0
2017-Oct-26 14:22N 54°17' W 130°22'0 0.0
2017-Oct-26 13:46N 54°17' W 130°22'0 0.0
2017-Oct-26 13:22N 54°17' W 130°22'0 0.0
2017-Oct-26 12:46N 54°17' W 130°22'0 0.0
2017-Oct-26 12:25N 54°17' W 130°22'0 0.0
2017-Oct-26 11:46N 54°17' W 130°22'0 0.0
2017-Oct-26 11:30N 54°17' W 130°22'0 0.0
2017-Oct-26 11:00N 54°17' W 130°22'0 0.0
2017-Oct-26 10:30N 54°17' W 130°22'0 0.0
2017-Oct-26 10:00N 54°17' W 130°22'0 0.0
2017-Oct-26 09:30N 54°17' W 130°22'0 0.0
2017-Oct-26 08:57N 54°17' W 130°22'0 0.0
2017-Oct-26 08:30N 54°17' W 130°22'0 0.0
2017-Oct-26 08:00N 54°17' W 130°22'0 0.0
2017-Oct-26 07:30N 54°17' W 130°22'0 0.0
2017-Oct-26 06:54N 54°17' W 130°22'0 0.0
2017-Oct-26 06:27N 54°17' W 130°22'0 0.0
2017-Oct-26 06:00N 54°17' W 130°22'0 0.0
2017-Oct-26 05:30N 54°17' W 130°22'0 0.0
2017-Oct-26 05:00N 54°17' W 130°22'0 0.0
2017-Oct-26 04:30N 54°17' W 130°22'0 0.0
2017-Oct-26 04:00N 54°17' W 130°22'0 0.0
2017-Oct-26 03:24N 54°17' W 130°22'0 0.0
2017-Oct-26 02:58N 54°17' W 130°22'0 0.0
2017-Oct-26 02:28N 54°17' W 130°22'0 0.0
2017-Oct-26 01:58N 54°17' W 130°22'0 0.0
2017-Oct-26 01:28N 54°17' W 130°22'0 0.0
2017-Oct-26 00:58N 54°17' W 130°22'0 0.0
2017-Oct-26 00:28N 54°17' W 130°22'0 0.0
2017-Oct-25 23:58N 54°17' W 130°22'0 0.0
2017-Oct-25 23:25N 54°17' W 130°22'0 0.0
2017-Oct-25 22:58N 54°17' W 130°22'0 0.0
2017-Oct-25 22:28N 54°17' W 130°22'0 0.0
2017-Oct-25 21:58N 54°17' W 130°22'0 0.0
2017-Oct-25 21:13N 54°17' W 130°22'0 0.0
2017-Oct-25 20:55N 54°17' W 130°22'  

Dump ship's entire track history